createdAt,value
2022-09-28T00:18:31.617Z,20.4
2022-09-28T00:48:31.619Z,20.3
2022-09-28T01:18:31.646Z,20.3
2022-09-28T01:48:31.618Z,20.3
2022-09-28T02:18:31.651Z,20.2
2022-09-28T02:48:31.643Z,20.1
2022-09-28T03:18:31.630Z,20.1
2022-09-28T03:48:31.627Z,20.1
2022-09-28T04:18:31.645Z,20.1
2022-09-28T04:48:31.615Z,20.1
2022-09-28T05:18:31.322Z,20.1
2022-09-28T05:48:31.610Z,20.1
2022-09-28T06:18:31.637Z,20.5
2022-09-28T06:48:31.639Z,20.7
2022-09-28T07:18:31.692Z,20.8
2022-09-28T07:48:31.681Z,20.8
2022-09-28T08:18:31.619Z,20.7
2022-09-28T08:48:31.643Z,20.6
2022-09-28T09:18:31.618Z,20.6
2022-09-28T09:48:31.634Z,20.6
2022-09-28T10:18:31.635Z,20.6
2022-09-28T10:48:31.631Z,20.5
2022-09-28T11:18:31.638Z,20.6
2022-09-28T11:48:31.613Z,20.7
2022-09-28T12:18:31.620Z,20.4
2022-09-28T12:48:31.624Z,20.5
2022-09-28T13:18:31.585Z,20.6
2022-09-28T13:48:31.643Z,20.7
2022-09-28T14:18:31.636Z,20.7
2022-09-28T14:48:31.610Z,20.8
2022-09-28T15:18:31.628Z,20.8
2022-09-28T15:48:31.627Z,20.7
2022-09-28T16:18:31.628Z,20.6
2022-09-28T16:48:31.598Z,20.5
2022-09-28T17:18:31.784Z,20.4
2022-09-28T17:48:31.761Z,20.3
2022-09-28T18:18:31.713Z,20.3
2022-09-28T18:48:31.753Z,20.3
2022-09-28T19:18:31.779Z,20.3
2022-09-28T19:48:31.604Z,20.3
2022-09-28T20:18:31.762Z,20.3
2022-09-28T20:48:31.729Z,20.3
2022-09-28T21:18:31.774Z,20.3
2022-09-28T21:48:31.759Z,20.3
2022-09-28T22:18:31.738Z,20.3
2022-09-28T22:48:31.679Z,20.2
2022-09-28T23:18:31.636Z,20.2
2022-09-28T23:48:31.585Z,20.2
